»·PEaware :: N535EG KVNY-KSNA

N535EG :: KVNY-KSNA

FLIGHT INFORMATION

Flight Status: Arrived
Operator: Privately registered:
United States
More flights under this callsign
Pilot: Anonymous 17686 (17686)
Aircraft: CESSNA 182 SKYLANE
(C182)
More flights by this aircraft type
Origin: KVNY Van Nuys
United States
Destination: KSNA John Wayne-Orange Co
United States
More flights between these airports :: More routes between these airports
Route: +
File this flight plan on PilotEdge
Remarks: CAT10
Altitude:
(Current/Filed)
5,500ft
Speed:
(Current/Filed)
0kts
Departed: 01-Jan-18 03:35 PM
Arrived: 01-Jan-18 04:09 PM
Distance/Time
Traveled:
44nm/0:34
Distance/Time
To Go:
Arrived

Flight Plot

Page will automatically refresh every two minutes.


Map Options




Map Legend


Flown Route
Filed Route
Departure Airport
Arrival Airport
Navaid (VOR, NDB)
Fix

Horizontal Profiles

Position Reports

Time Latitude Longitude Heading Altitude Ground
Speed
01-Jan-18 15:21 34.204585 -118.491437 264 805ft 0kts
01-Jan-18 15:22 34.204585 -118.491441 264 805ft 0kts
01-Jan-18 15:23 34.204584 -118.491446 264 805ft 0kts
01-Jan-18 15:24 34.204584 -118.491450 264 805ft 0kts
01-Jan-18 15:25 34.204584 -118.491454 264 805ft 0kts
01-Jan-18 15:26 34.204584 -118.491458 264 805ft 0kts
01-Jan-18 15:27 34.204583 -118.491462 264 805ft 0kts
01-Jan-18 15:28 34.204583 -118.491466 264 805ft 0kts
01-Jan-18 15:29 34.204583 -118.491470 264 805ft 0kts
01-Jan-18 15:30 34.204582 -118.491474 264 805ft 0kts
01-Jan-18 15:31 34.205410 -118.491191 354 805ft 10kts
01-Jan-18 15:32 34.208476 -118.491472 354 805ft 11kts
01-Jan-18 15:33 34.211611 -118.491779 0 805ft 6kts
01-Jan-18 15:34 34.214741 -118.492101 354 805ft 11kts
01-Jan-18 15:35 34.217940 -118.492451 353 805ft 10kts
01-Jan-18 15:36 34.219051 -118.492407 70 805ft 0kts
01-Jan-18 15:37 34.219053 -118.492399 70 805ft 0kts
01-Jan-18 15:38 34.219056 -118.492390 70 805ft 0kts
01-Jan-18 15:39 34.218781 -118.492002 86 805ft 0kts
01-Jan-18 15:40 34.218370 -118.491187 174 805ft 21kts
01-Jan-18 15:41 34.193848 -118.488679 178 1439ft 104kts
01-Jan-18 15:42 34.166970 -118.495821 243 2337ft 104kts
01-Jan-18 15:43 34.172452 -118.516851 16 3232ft 95kts
01-Jan-18 15:44 34.182207 -118.497886 149 4135ft 90kts
01-Jan-18 15:45 34.167234 -118.519565 248 4668ft 98kts
01-Jan-18 15:46 34.154868 -118.548867 244 5645ft 103kts
01-Jan-18 15:47 34.133449 -118.562647 158 5561ft 118kts
01-Jan-18 15:48 34.104444 -118.546887 153 5407ft 111kts
01-Jan-18 15:49 34.079256 -118.528358 144 5435ft 97kts
01-Jan-18 15:50 34.057533 -118.509246 136 5539ft 110kts
01-Jan-18 15:51 34.037611 -118.484013 146 5453ft 120kts
01-Jan-18 15:52 34.009704 -118.467657 152 5543ft 118kts
01-Jan-18 15:53 33.979803 -118.453135 152 5434ft 113kts
01-Jan-18 15:54 33.947681 -118.438945 161 5462ft 133kts
01-Jan-18 15:55 33.916583 -118.424398 138 5435ft 101kts
01-Jan-18 15:56 33.896560 -118.398943 124 5573ft 116kts
01-Jan-18 15:57 33.876961 -118.369168 132 5477ft 114kts
01-Jan-18 15:58 33.855786 -118.342577 129 5473ft 110kts
01-Jan-18 15:59 33.834826 -118.314522 130 5517ft 109kts
01-Jan-18 16:00 33.809521 -118.289170 143 5539ft 130kts
01-Jan-18 16:01 33.782011 -118.261774 136 5477ft 128kts
01-Jan-18 16:02 33.757524 -118.234645 138 5115ft 128kts
01-Jan-18 16:03 33.732935 -118.205342 133 5151ft 120kts
01-Jan-18 16:04 33.716903 -118.173365 106 4093ft 116kts
01-Jan-18 16:05 33.719040 -118.135889 70 3433ft 121kts
01-Jan-18 16:06 33.730977 -118.098623 65 3609ft 112kts
01-Jan-18 16:07 33.746108 -118.066751 59 3488ft 110kts
01-Jan-18 16:08 33.760276 -118.034038 64 3381ft 110kts
01-Jan-18 16:09 33.770246 -117.998773 76 3512ft 108kts
01-Jan-18 16:10 33.760867 -117.963031 129 3479ft 128kts
01-Jan-18 16:11 33.738774 -117.929401 114 3145ft 132kts
01-Jan-18 16:12 33.724432 -117.891097 113 1720ft 115kts
01-Jan-18 16:13 33.707986 -117.860365 152 657ft 109kts
01-Jan-18 16:14 33.684329 -117.863513 204 147ft 72kts
01-Jan-18 16:15 33.675951 -117.869866 294 59ft 0kts
01-Jan-18 16:16 33.675138 -117.870692 207 59ft 14kts
01-Jan-18 16:17 33.674990 -117.871903 36 59ft 5kts

Navigation Log

Ident Type
Flight plan parsing failed, navigation log unavailable